Rosebud Indian Reservation, South Dakota
Current Conditions -  °F | °C
As of 1:52 PM on Thursday 29 Jan 2015 (Local Time) from KVTN Reporting Station
Clear Clear  
Wind Chill: 37°   Ceiling: Unl
Heat Index: 43°   Visibility: 10mi
Dew Point: 21°   Wind: 10mph
Humidity: 42%   Direction: 320°NW
Pressure: 30.44"   Gusts: NA
Location:  43.2328°N, 100.853°W
Report Text: KVTN 291952Z AUTO 32009KT 10SM CLR 06/M06 A3044 RMK AO2 SLP327 T00611061
Loading
Personal Weather Stations






























Interactive Weather Map New forecast layout! Learn more

10-Day Weather Forecast

Advertisements
Track Severe Weather on mobile